Portada
METAR-TAF:

METAR-TAF

Aeroports :

Tulcea, Romania

latitud: 45-11N, longitud: 028-49E, altitud: 4 m

Observació

L'informe es va fer fa 22 minuts, a les 08:00 UTC
Vent 14 kt del Sud/Sud-Est
Temperatura 26°C
Humitat 28%
Pressió 1011 hPa
Visibilitat 10 km o més
sense núvols per sota de 1500 mi sense presència de cumulonimbus.

METAR: LRTC 060800Z 16014KT CAVOK 26/06 Q1011

Hora: 11:22 (08:22 UTC)

Pronòstic

L'informe es va fer fa 3 hores i 22 minuts, a les 05:00 UTC
Pronòstic vàlid del 06 a les 06 UTC al 06 a les 15 UTC
Vent 8 kt del Sud/Sud-Est
Visibilitat 10 km o més
sense núvols per sota de 1500 mi sense presència de cumulonimbus.
Temporalment
l' 06 a les 10 UTC al 06 a les 15 UTC
Vent 18 kt del Sud/Sud-Est amb ràfegues de 28 kt

TAF: LRTC 060500Z 0606/0615 15008KT CAVOK TEMPO 0610/0615 15018G28KT

Observacions i pronòstics meteorològics de més de 4000 aeroports (METAR i TAF).

Les estacions disponibles són els punts grocs i vermells al mapa.

Posi el ratolí al punt desitjat per veure el nom de l'estació.

Feu clic per veure les observacions i els pronòstics meteorològics.

Per canviar el mapa: feu clic els botons verds amb una creu de color negre per apropar; al botó verd amb un guió per allunyar la imatge; o en les fletxes verdes per a mapes adjacents.


METAR-TAF: